Academy, SD

9:49 PM CST on February 11, 2016 (GMT -0600)
IEM | | Change Station
CLOSE
Current Station
Personal Weather Station
Location: Platte, SD
Elevation: 1601 ft
Nearby Weather Stations

Elev 1601 ft 43.38 °N, 98.85 °W | Updated 22 minutes ago

Overcast
Overcast
21 °F
Feels Like 21 °F
N
0
Wind Variable Wind from North
Gusts 0.0 mph

Today
High -- | Low -- °F
--% Chance of Precip.
Yesterday
High -- | Low -- °F
Precip. -- in
Pressure 30.23 in
Visibility 10.0 miles
Clouds Mostly Cloudy 5000 ft
Overcast 8000 ft
Windchill 21 °F
Dew Point 21 °F
Humidity 100%
Rainfall in
Snow Depth Not available.
7:39 AM 6:00 PM
Waxing Crescent, 17% visible
METAR K9V9 120335Z AUTO 33003KT 10SM BKN050 OVC080 M04/M05 A3023 RMK AO2 T10451053
Pressure 30.23 in
Visibility 10.0 miles
Clouds Mostly Cloudy 5000 ft
Overcast 8000 ft
Windchill 21 °F
Dew Point 21 °F
Humidity 100%
Rainfall in
Snow Depth Not available.
7:39 AM 6:00 PM
Waxing Crescent, 17% visible
METAR K9V9 120335Z AUTO 33003KT 10SM BKN050 OVC080 M04/M05 A3023 RMK AO2 T10451053

10-Day Weather Forecast

Almanac

Astronomy

Feb. 11, 2016 Rise Set
Actual Time
Civil Twilight
Nautical Twilight
Astronomical Twilight
Moon
Length of Visible Light
Length of Day
Tomorrow will be .
, % of the Moon is Illuminated

Today's Extremes

State Highs State Lows

Community

WunderPhotos

Upload Photos

1,892,254 photos uploaded!

WunderBlog® & News

Nearby

Air Quality

  Air Quality AQ Index Pollutant
Not available.

Snow Depth

Station Depth Elevation

Earthquake Activity

City Distance Mag. Time & Date
Minimum magnitude displayed is 2.5.

Coastal Water Temperatures

Place Temperature

Stations

Nearby Weather Stations

Station Location Temp. Windchill Dew Point Humidity Wind Precip. Elev Updated Type
                   

Watches & Warnings

There are currently no watches in effect.